Time;durP1;ratioP1;P1;durP2;ratioP2;P2;SDS_P1;SDS_P2;PMS_P1;PMS_P2;Temp;Humidity;BMP_temperature;BMP_pressure;BME280_temperature;BME280_humidity;BME280_pressure;Samples;Min_cycle;Max_cycle;Signal;HPM_P1;HPM_P2
2023/01/15 00:01:20;;;;;;;20.63;13.63;;;7.50;99.90;;;;;;5097061;28;20039;-75
2023/01/15 00:03:45;;;;;;;19.20;12.20;;;7.50;99.90;;;;;;5096976;28;20035;-74
2023/01/15 00:06:11;;;;;;;17.33;13.13;;;7.50;99.90;;;;;;5096794;28;20321;-75
2023/01/15 00:08:37;;;;;;;19.38;15.48;;;7.50;99.90;;;;;;5096890;28;20028;-75
2023/01/15 00:11:05;;;;;;;18.35;9.98;;;7.60;99.90;;;;;;5096608;28;20036;-75
2023/01/15 00:13:31;;;;;;;19.10;16.08;;;7.40;99.90;;;;;;5096946;28;20115;-75
2023/01/15 00:16:09;;;;;;;20.25;17.83;;;7.50;99.90;;;;;;5095528;28;20141;-75
2023/01/15 00:18:35;;;;;;;21.25;17.92;;;7.50;99.90;;;;;;5096994;28;20043;-75
2023/01/15 00:21:03;;;;;;;19.83;16.08;;;7.50;99.90;;;;;;5096879;28;20043;-75
2023/01/15 00:29:00;;;;;;;20.10;13.30;;;7.50;99.90;;;;;;5096885;28;20090;-75
2023/01/15 00:31:26;;;;;;;17.40;15.60;;;7.60;99.90;;;;;;5096815;28;20074;-75
2023/01/15 00:33:52;;;;;;;19.75;15.70;;;7.60;99.90;;;;;;5096762;28;20371;-74
2023/01/15 00:36:17;;;;;;;18.02;12.90;;;7.60;99.90;;;;;;5096783;28;20078;-74
2023/01/15 00:38:43;;;;;;;18.90;14.43;;;7.50;99.90;;;;;;5096698;28;20044;-75
2023/01/15 00:41:09;;;;;;;17.88;16.17;;;7.40;99.90;;;;;;5096290;28;20082;-74
2023/01/15 00:43:34;;;;;;;17.08;14.32;;;7.40;99.90;;;;;;5096641;28;20397;-75
2023/01/15 00:46:01;;;;;;;20.20;13.88;;;7.40;99.90;;;;;;5096605;28;20476;-75
2023/01/15 00:48:26;;;;;;;16.33;14.02;;;7.40;99.90;;;;;;5096648;28;20040;-75
2023/01/15 00:50:52;;;;;;;17.73;11.95;;;7.40;99.90;;;;;;5095643;28;20120;-74
2023/01/15 00:53:18;;;;;;;19.90;12.05;;;7.40;99.90;;;;;;5096594;28;20136;-75
2023/01/15 00:55:43;;;;;;;16.08;11.77;;;7.40;99.90;;;;;;5096531;28;20047;-75
2023/01/15 00:58:09;;;;;;;19.95;11.75;;;7.40;99.90;;;;;;5096189;28;20056;-75
2023/01/15 01:00:35;;;;;;;15.30;12.40;;;7.50;99.90;;;;;;5096502;28;20052;-75
2023/01/15 01:03:00;;;;;;;26.95;14.77;;;7.50;99.90;;;;;;5096492;28;20047;-75
2023/01/15 01:05:26;;;;;;;20.20;13.13;;;7.50;99.90;;;;;;5096366;28;20040;-75
2023/01/15 01:07:52;;;;;;;14.77;10.95;;;7.60;99.90;;;;;;5095131;28;20048;-75
2023/01/15 01:10:17;;;;;;;24.70;13.88;;;7.50;99.90;;;;;;5096058;28;20032;-75
2023/01/15 01:12:43;;;;;;;20.90;12.43;;;7.50;99.90;;;;;;5096501;28;20039;-75
2023/01/15 01:15:09;;;;;;;17.40;13.80;;;7.40;99.90;;;;;;5096398;28;20051;-75
2023/01/15 01:17:38;;;;;;;21.70;10.95;;;7.40;99.90;;;;;;5096332;28;20047;-75
2023/01/15 01:20:04;;;;;;;15.73;12.45;;;7.30;99.90;;;;;;5096323;28;20044;-75
2023/01/15 01:22:32;;;;;;;16.17;11.50;;;7.40;99.90;;;;;;5096050;28;20070;-75
2023/01/15 01:24:58;;;;;;;18.42;10.85;;;7.40;99.90;;;;;;5096190;28;20073;-75
2023/01/15 01:27:23;;;;;;;16.27;12.65;;;7.30;99.90;;;;;;5097306;28;20120;-75
2023/01/15 01:29:49;;;;;;;20.88;12.38;;;7.40;99.90;;;;;;5098656;28;20048;-75
2023/01/15 01:32:15;;;;;;;22.42;12.77;;;7.40;99.90;;;;;;5099785;28;20036;-75
2023/01/15 01:34:41;;;;;;;23.42;13.43;;;7.40;99.90;;;;;;5099844;28;20044;-75
2023/01/15 01:37:06;;;;;;;22.45;12.40;;;7.50;99.90;;;;;;5099828;28;20043;-75
2023/01/15 01:39:32;;;;;;;19.25;12.77;;;7.50;99.90;;;;;;5099351;28;20066;-75
2023/01/15 01:41:58;;;;;;;20.05;10.52;;;7.40;99.90;;;;;;5098396;28;20349;-75
2023/01/15 01:44:32;;;;;;;17.95;11.52;;;7.40;99.90;;;;;;5099529;28;20401;-75
2023/01/15 01:47:06;;;;;;;18.35;12.40;;;7.40;99.90;;;;;;5099556;28;20047;-75
2023/01/15 01:49:33;;;;;;;14.73;12.30;;;7.50;99.90;;;;;;5099557;28;20032;-75
2023/01/15 01:52:07;;;;;;;17.95;11.07;;;7.40;99.90;;;;;;5099504;28;20070;-75
2023/01/15 01:54:35;;;;;;;21.90;10.70;;;7.40;99.90;;;;;;5099207;28;20417;-75
2023/01/15 01:57:02;;;;;;;19.58;10.63;;;7.40;99.90;;;;;;5099184;28;20079;-75
2023/01/15 01:59:28;;;;;;;20.90;10.25;;;7.50;99.90;;;;;;5099418;28;20099;-75
2023/01/15 02:01:54;;;;;;;19.17;10.07;;;7.40;99.90;;;;;;5097974;28;20437;-75
2023/01/15 02:04:23;;;;;;;17.98;7.05;;;7.40;99.90;;;;;;5098908;28;20047;-75
2023/01/15 02:06:50;;;;;;;17.58;8.70;;;7.30;99.90;;;;;;5099186;28;20040;-75
2023/01/15 02:09:16;;;;;;;16.90;9.75;;;7.30;99.90;;;;;;5098772;28;20067;-75
2023/01/15 02:11:42;;;;;;;16.25;8.80;;;7.30;99.90;;;;;;5099221;28;20068;-75
2023/01/15 02:14:15;;;;;;;18.92;9.30;;;7.40;99.90;;;;;;5099125;28;20040;-75
2023/01/15 02:17:12;;;;;;;13.55;9.43;;;7.40;99.90;;;;;;5097897;28;20044;-75
2023/01/15 02:20:08;;;;;;;15.90;10.52;;;7.40;99.90;;;;;;5098999;28;20374;-75
2023/01/15 02:23:08;;;;;;;21.70;10.85;;;7.40;99.90;;;;;;5098869;28;20051;-75
2023/01/15 02:26:01;;;;;;;16.63;8.30;;;7.40;99.90;;;;;;5098794;28;20146;-75
2023/01/15 02:28:31;;;;;;;22.00;8.18;;;7.30;99.90;;;;;;5098814;28;20047;-75
2023/01/15 02:31:11;;;;;;;17.75;8.38;;;7.30;99.90;;;;;;5098837;28;20357;-74
2023/01/15 02:33:54;;;;;;;19.17;6.82;;;7.30;99.90;;;;;;5098763;28;20060;-75
2023/01/15 02:36:23;;;;;;;21.45;8.98;;;7.30;99.90;;;;;;5097610;28;20325;-75
2023/01/15 02:38:51;;;;;;;19.70;8.60;;;7.30;99.90;;;;;;5097422;28;20044;-75
2023/01/15 02:41:28;;;;;;;16.77;6.43;;;7.30;99.90;;;;;;5098193;28;20044;-75
2023/01/15 02:43:55;;;;;;;;;;;7.30;99.90;;;;;;5099032;28;20063;-76
2023/01/15 02:46:25;;;;;;;17.92;8.05;;;7.30;99.90;;;;;;5098404;28;19955;-75
2023/01/15 02:48:54;;;;;;;20.20;9.40;;;7.40;99.90;;;;;;5098370;28;20032;-75
2023/01/15 02:51:24;;;;;;;16.38;6.53;;;7.40;99.90;;;;;;5096986;28;20133;-75
2023/01/15 02:53:56;;;;;;;19.23;6.68;;;7.30;99.90;;;;;;5098313;28;20040;-75
2023/01/15 02:56:25;;;;;;;16.45;8.40;;;7.40;99.90;;;;;;5098241;28;20326;-75
2023/01/15 02:58:58;;;;;;;14.18;5.03;;;7.40;99.90;;;;;;5097704;28;20139;-75
2023/01/15 03:01:54;;;;;;;15.73;6.13;;;7.30;99.90;;;;;;5098147;28;20115;-75
2023/01/15 03:04:42;;;;;;;21.63;7.05;;;7.30;99.90;;;;;;5096725;28;20459;-75
2023/01/15 03:07:19;;;;;;;17.45;6.47;;;7.40;99.90;;;;;;5097843;28;20306;-76
2023/01/15 03:09:46;;;;;;;17.20;8.10;;;7.30;99.90;;;;;;5097471;28;20050;-75
2023/01/15 03:12:22;;;;;;;16.65;6.28;;;7.30;99.90;;;;;;5097439;28;20417;-75
2023/01/15 03:15:04;;;;;;;18.02;8.05;;;7.30;99.90;;;;;;5096773;28;20142;-75
2023/01/15 03:17:38;;;;;;;18.92;9.30;;;7.30;99.90;;;;;;5097666;28;20119;-75
2023/01/15 03:20:19;;;;;;;18.52;6.85;;;7.30;99.90;;;;;;5097798;28;20044;-75
2023/01/15 03:22:50;;;;;;;18.67;7.63;;;7.30;99.90;;;;;;5096699;28;20043;-75
2023/01/15 03:25:22;;;;;;;21.55;7.10;;;7.30;99.90;;;;;;5097337;28;20075;-75
2023/01/15 03:27:51;;;;;;;24.13;6.32;;;7.30;99.90;;;;;;5097726;28;20035;-75
2023/01/15 03:30:20;;;;;;;23.05;7.30;;;7.20;99.90;;;;;;5097625;28;20044;-75
2023/01/15 03:32:46;;;;;;;21.63;8.75;;;7.30;99.90;;;;;;5097594;28;20036;-75
2023/01/15 03:35:43;;;;;;;18.00;6.30;;;7.40;99.90;;;;;;5097539;28;20040;-75
2023/01/15 03:38:10;;;;;;;16.90;6.30;;;7.40;99.90;;;;;;5097536;28;20055;-75
2023/01/15 03:40:47;;;;;;;15.60;7.50;;;7.40;99.90;;;;;;5097017;28;20085;-75
2023/01/15 03:46:06;;;;;;;18.27;5.95;;;7.50;99.90;;;;;;5097412;28;20426;-75
2023/01/15 03:49:17;;;;;;;17.13;6.18;;;7.40;99.90;;;;;;5097440;28;20040;-75
2023/01/15 03:51:53;;;;;;;14.73;4.20;;;7.40;99.90;;;;;;5096659;28;20073;-75
2023/01/15 03:54:40;;;;;;;15.85;6.13;;;7.30;99.90;;;;;;5097345;28;20066;-75
2023/01/15 03:57:21;;;;;;;12.38;4.80;;;7.40;99.90;;;;;;5097022;28;20063;-75
2023/01/15 03:59:53;;;;;;;13.77;4.68;;;7.30;99.90;;;;;;5095843;28;20177;-75
2023/01/15 04:02:20;;;;;;;15.75;3.30;;;7.40;99.90;;;;;;5097109;28;20063;-75
2023/01/15 04:04:48;;;;;;;19.10;3.20;;;7.30;99.90;;;;;;5096793;28;20428;-75
2023/01/15 04:07:14;;;;;;;10.13;2.85;;;7.30;99.90;;;;;;5097064;28;20040;-75
2023/01/15 04:09:40;;;;;;;20.67;3.33;;;7.30;99.90;;;;;;5096363;28;20043;-75
2023/01/15 04:12:06;;;;;;;20.42;3.92;;;7.20;99.90;;;;;;5097019;28;20036;-75
2023/01/15 04:14:32;;;;;;;20.35;4.40;;;7.30;99.90;;;;;;5096705;28;20040;-75
2023/01/15 04:16:58;;;;;;;18.80;3.92;;;7.30;99.90;;;;;;5097069;28;20115;-75
2023/01/15 04:19:24;;;;;;;9.60;3.38;;;7.30;99.90;;;;;;5096952;28;20392;-75
2023/01/15 04:21:49;;;;;;;24.58;3.70;;;7.20;99.90;;;;;;5096935;28;20071;-75
2023/01/15 04:24:15;;;;;;;19.13;4.93;;;7.20;99.90;;;;;;5096814;28;20044;-75
2023/01/15 04:26:41;;;;;;;13.95;3.63;;;7.20;99.90;;;;;;5096551;28;20072;-75
2023/01/15 04:29:06;;;;;;;21.10;3.90;;;7.10;99.90;;;;;;5095556;28;20039;-75
2023/01/15 04:31:33;;;;;;;15.75;3.30;;;7.10;99.90;;;;;;5095868;28;20118;-75
2023/01/15 04:33:59;;;;;;;10.73;3.00;;;7.10;99.90;;;;;;5096629;28;20043;-75
2023/01/15 04:36:25;;;;;;;14.82;3.20;;;7.10;99.90;;;;;;5096791;28;20036;-75
2023/01/15 04:38:50;;;;;;;18.25;3.28;;;7.10;99.90;;;;;;5096461;28;20036;-75
2023/01/15 04:44:05;;;;;;;15.68;3.50;;;7.00;99.90;;;;;;5085305;28;20048;-75
2023/01/15 04:46:32;;;;;;;20.92;4.00;;;7.00;99.90;;;;;;5096167;28;20154;-75
2023/01/15 04:48:58;;;;;;;21.60;3.35;;;7.00;99.90;;;;;;5096701;28;20039;-75
2023/01/15 04:51:23;;;;;;;16.08;3.25;;;7.00;99.90;;;;;;5096648;28;20040;-75
2023/01/15 04:53:49;;;;;;;16.38;3.45;;;7.00;99.90;;;;;;5096301;28;20051;-75
2023/01/15 04:56:15;;;;;;;14.45;2.70;;;7.00;99.90;;;;;;5096378;28;20036;-75
2023/01/15 04:58:40;;;;;;;18.75;3.30;;;7.00;99.90;;;;;;5096186;28;20121;-74
2023/01/15 05:01:15;;;;;;;14.57;2.83;;;7.00;99.90;;;;;;5096294;28;20032;-75
2023/01/15 05:03:41;;;;;;;16.10;3.13;;;7.00;99.90;;;;;;5099660;28;20093;-75
2023/01/15 05:06:08;;;;;;;16.10;3.35;;;7.10;99.90;;;;;;5100005;28;20422;-75
2023/01/15 05:08:34;;;;;;;19.35;3.25;;;7.00;99.90;;;;;;5100122;28;20032;-75
2023/01/15 05:11:02;;;;;;;18.08;3.15;;;7.00;99.90;;;;;;5099885;28;20317;-75
2023/01/15 05:13:29;;;;;;;13.43;3.10;;;6.90;99.90;;;;;;5100262;28;20044;-75
2023/01/15 05:15:54;;;;;;;21.73;3.42;;;7.00;99.90;;;;;;5099884;28;20121;-75
2023/01/15 05:18:20;;;;;;;23.67;3.45;;;6.90;99.90;;;;;;5099971;28;20133;-75
2023/01/15 05:20:46;;;;;;;15.40;3.08;;;6.90;99.90;;;;;;5099872;28;20085;-75
2023/01/15 05:23:11;;;;;;;16.10;3.20;;;6.90;99.90;;;;;;5098856;28;20048;-75
2023/01/15 05:25:37;;;;;;;21.77;3.50;;;6.80;99.90;;;;;;5099940;28;20123;-75
2023/01/15 05:28:03;;;;;;;23.85;3.65;;;6.90;99.90;;;;;;5100043;28;20068;-75
2023/01/15 05:30:29;;;;;;;18.40;2.83;;;6.90;99.90;;;;;;5099903;28;20032;-75
2023/01/15 05:32:54;;;;;;;15.07;2.97;;;6.80;99.90;;;;;;5098935;28;20456;-75
2023/01/15 05:35:20;;;;;;;16.70;2.63;;;6.80;99.90;;;;;;5099788;28;20036;-75
2023/01/15 05:37:46;;;;;;;18.00;3.70;;;6.90;99.90;;;;;;5099807;28;20436;-75
2023/01/15 05:40:12;;;;;;;18.38;3.42;;;6.90;99.90;;;;;;5099417;28;20447;-75
2023/01/15 05:42:37;;;;;;;16.80;2.72;;;6.80;99.90;;;;;;5099779;28;20089;-75
2023/01/15 05:45:03;;;;;;;15.93;3.45;;;6.80;99.90;;;;;;5099598;28;20355;-75
2023/01/15 05:47:29;;;;;;;20.58;2.97;;;6.70;99.90;;;;;;5098249;28;20044;-75
2023/01/15 05:49:54;;;;;;;15.85;3.30;;;6.70;99.90;;;;;;5099654;28;20048;-75
2023/01/15 05:52:20;;;;;;;13.30;2.45;;;6.70;99.90;;;;;;5099596;28;20043;-75
2023/01/15 05:54:48;;;;;;;17.13;2.45;;;6.70;99.90;;;;;;5099615;28;20367;-75
2023/01/15 05:57:14;;;;;;;17.67;2.47;;;6.70;99.90;;;;;;5099150;28;20059;-75
2023/01/15 05:59:39;;;;;;;12.00;2.03;;;6.70;99.90;;;;;;5099637;28;20043;-75
2023/01/15 06:02:05;;;;;;;18.50;2.90;;;6.60;99.90;;;;;;5099382;28;20046;-76
2023/01/15 06:04:31;;;;;;;16.17;2.20;;;6.70;99.90;;;;;;5099322;28;20040;-75
2023/01/15 06:06:57;;;;;;;12.05;2.15;;;6.60;99.90;;;;;;5097973;28;20036;-75
2023/01/15 06:09:24;;;;;;;23.35;2.35;;;6.70;99.90;;;;;;5098834;28;20040;-75
2023/01/15 06:11:50;;;;;;;8.95;1.90;;;6.60;99.90;;;;;;5081080;28;20040;-75
2023/01/15 06:14:16;;;;;;;12.65;2.42;;;6.60;99.90;;;;;;5097859;28;20040;-75
2023/01/15 06:16:42;;;;;;;8.18;1.67;;;6.60;99.90;;;;;;5098760;28;20432;-75
2023/01/15 06:19:09;;;;;;;9.98;1.85;;;6.50;99.90;;;;;;5099061;28;20032;-75
2023/01/15 06:21:35;;;;;;;9.50;1.63;;;6.50;99.90;;;;;;5099061;28;20317;-75
2023/01/15 06:24:01;;;;;;;8.93;1.50;;;6.40;99.90;;;;;;5098907;28;20028;-75
2023/01/15 06:26:27;;;;;;;9.02;1.52;;;6.50;99.90;;;;;;5080681;28;20421;-75
2023/01/15 06:28:53;;;;;;;15.35;1.73;;;6.50;99.90;;;;;;5098861;28;20039;-75
2023/01/15 06:31:21;;;;;;;13.48;2.20;;;6.50;99.90;;;;;;5098150;28;20050;-75
2023/01/15 06:33:47;;;;;;;10.55;2.20;;;6.50;99.90;;;;;;5097416;28;20337;-75
2023/01/15 06:36:15;;;;;;;17.58;2.28;;;6.50;99.90;;;;;;5098714;28;20047;-75
2023/01/15 06:38:42;;;;;;;12.32;2.33;;;6.40;99.90;;;;;;5098635;28;20051;-75
2023/01/15 06:49:36;;;;;;;13.10;2.25;;;6.40;99.90;;;;;;5098501;28;20420;-75
2023/01/15 06:52:03;;;;;;;15.80;2.30;;;6.40;99.90;;;;;;5097309;28;20040;-75
2023/01/15 06:54:29;;;;;;;17.58;3.15;;;6.40;99.90;;;;;;5098100;28;20534;-75
2023/01/15 06:56:54;;;;;;;11.30;2.58;;;6.40;99.90;;;;;;5097795;28;20417;-76
2023/01/15 06:59:20;;;;;;;18.40;2.33;;;6.30;99.90;;;;;;5098225;28;20051;-75
2023/01/15 07:01:46;;;;;;;15.38;2.67;;;6.40;99.90;;;;;;5097209;28;20061;-75
2023/01/15 07:04:12;;;;;;;14.15;3.08;;;6.40;99.90;;;;;;5098212;28;20107;-75
2023/01/15 07:06:38;;;;;;;15.45;2.03;;;6.30;99.90;;;;;;5097873;28;20123;-75
2023/01/15 07:09:03;;;;;;;13.70;2.72;;;6.30;99.90;;;;;;5097026;28;20044;-75
2023/01/15 07:11:29;;;;;;;9.10;2.15;;;6.40;99.90;;;;;;5097678;28;20047;-76
2023/01/15 07:14:04;;;;;;;12.07;2.25;;;6.40;99.90;;;;;;5098144;28;20326;-75
2023/01/15 07:16:36;;;;;;;14.60;2.30;;;6.30;99.90;;;;;;5097691;28;20035;-75
2023/01/15 07:19:03;;;;;;;10.85;1.50;;;6.30;99.90;;;;;;5097944;28;20328;-75
2023/01/15 07:21:29;;;;;;;15.98;1.77;;;6.30;99.90;;;;;;5097594;28;20051;-75
2023/01/15 07:23:57;;;;;;;11.18;2.08;;;6.30;99.90;;;;;;5097579;28;20032;-75
2023/01/15 07:26:23;;;;;;;11.43;1.65;;;6.30;99.90;;;;;;5095737;28;20130;-75
2023/01/15 07:28:49;;;;;;;10.35;1.70;;;6.30;99.90;;;;;;5097661;28;20428;-75
2023/01/15 07:31:15;;;;;;;15.63;1.85;;;6.30;99.90;;;;;;5097706;28;20059;-75
2023/01/15 07:33:40;;;;;;;13.55;1.58;;;6.40;99.90;;;;;;5097665;28;20031;-75
2023/01/15 07:36:06;;;;;;;9.63;1.90;;;6.20;99.90;;;;;;5097627;28;20036;-75
2023/01/15 07:38:32;;;;;;;11.80;1.73;;;6.20;99.90;;;;;;5097228;28;20066;-75
2023/01/15 07:51:55;;;;;;;11.20;1.92;;;6.20;99.90;;;;;;5097466;28;20093;-75
2023/01/15 07:54:21;;;;;;;10.70;1.60;;;6.20;99.90;;;;;;5097223;28;20476;-75
2023/01/15 07:56:48;;;;;;;12.02;1.92;;;6.20;99.90;;;;;;5096731;28;20417;-76
2023/01/15 07:59:13;;;;;;;11.38;1.80;;;6.20;99.90;;;;;;5097298;28;20316;-75
2023/01/15 08:01:39;;;;;;;10.30;1.25;;;6.20;99.90;;;;;;5096902;28;20047;-74
2023/01/15 08:04:05;;;;;;;15.02;2.00;;;6.20;99.90;;;;;;5096063;28;20044;-71
2023/01/15 08:06:31;;;;;;;9.65;1.33;;;6.30;99.90;;;;;;5095685;28;20124;-69
2023/01/15 08:08:56;;;;;;;11.65;2.10;;;6.20;99.90;;;;;;5096695;28;20047;-68
2023/01/15 08:16:53;;;;;;;12.43;1.70;;;6.20;99.90;;;;;;5096794;28;20046;-68
2023/01/15 08:19:19;;;;;;;7.53;1.38;;;6.20;99.90;;;;;;5095653;28;20123;-68
2023/01/15 08:21:44;;;;;;;13.27;1.60;;;6.10;99.90;;;;;;5096928;28;20073;-69
2023/01/15 08:24:10;;;;;;;10.63;1.50;;;6.20;99.90;;;;;;5096525;28;20035;-68
2023/01/15 08:26:36;;;;;;;9.80;1.48;;;6.30;99.90;;;;;;5095797;28;20044;-69
2023/01/15 08:29:01;;;;;;;15.55;2.15;;;6.40;99.90;;;;;;5096807;28;20036;-68
2023/01/15 08:31:27;;;;;;;12.85;1.92;;;6.40;99.90;;;;;;5096856;28;20119;-69
2023/01/15 08:33:53;;;;;;;12.98;2.20;;;6.40;99.90;;;;;;5096823;28;20039;-68
2023/01/15 08:36:18;;;;;;;10.45;1.50;;;6.50;99.90;;;;;;5097763;28;20043;-68
2023/01/15 08:38:44;;;;;;;7.03;1.42;;;6.50;99.90;;;;;;5100955;28;20051;-68
2023/01/15 08:41:10;;;;;;;15.20;1.88;;;6.40;99.90;;;;;;5099469;28;20421;-69
2023/01/15 08:43:35;;;;;;;12.52;2.20;;;6.30;99.90;;;;;;5100839;28;20044;-69
2023/01/15 08:46:03;;;;;;;11.05;1.35;;;6.20;99.90;;;;;;5099445;28;20410;-70
2023/01/15 08:48:31;;;;;;;11.75;1.98;;;6.20;99.90;;;;;;5100365;28;20421;-67
2023/01/15 08:50:57;;;;;;;18.40;1.70;;;6.20;99.90;;;;;;5100704;28;20115;-68
2023/01/15 08:53:23;;;;;;;12.10;2.25;;;6.20;99.90;;;;;;5100660;28;20068;-68
2023/01/15 08:55:49;;;;;;;15.45;2.10;;;6.20;99.90;;;;;;5100615;28;20048;-68
2023/01/15 08:58:17;;;;;;;9.13;1.90;;;6.20;99.90;;;;;;5100149;28;20139;-69
2023/01/15 09:00:43;;;;;;;11.02;2.05;;;6.20;99.90;;;;;;5100474;28;20105;-69
2023/01/15 09:03:09;;;;;;;15.25;2.30;;;6.30;99.90;;;;;;5100482;28;20040;-69
2023/01/15 09:05:36;;;;;;;14.23;2.10;;;6.40;99.90;;;;;;5100336;28;20040;-68
2023/01/15 09:08:03;;;;;;;13.73;1.80;;;6.40;99.90;;;;;;5100051;28;20046;-68
2023/01/15 09:10:29;;;;;;;10.32;1.95;;;6.40;99.90;;;;;;5098579;28;20086;-68
2023/01/15 09:12:58;;;;;;;13.93;2.13;;;6.30;99.90;;;;;;5100023;28;20068;-69
2023/01/15 09:15:23;;;;;;;16.83;2.63;;;6.30;99.90;;;;;;5099127;28;20079;-69
2023/01/15 09:17:49;;;;;;;9.20;2.05;;;6.20;99.90;;;;;;5099422;28;20402;-69
2023/01/15 09:20:15;;;;;;;10.15;1.73;;;6.20;99.90;;;;;;5099103;28;20357;-69
2023/01/15 09:22:41;;;;;;;14.93;2.05;;;6.30;99.90;;;;;;5099626;28;20417;-69
2023/01/15 09:25:07;;;;;;;11.63;2.33;;;6.50;99.90;;;;;;5099064;28;20040;-69
2023/01/15 09:27:33;;;;;;;11.23;2.53;;;6.50;99.90;;;;;;5099236;28;20103;-69
2023/01/15 09:29:59;;;;;;;11.45;2.55;;;6.60;99.90;;;;;;5099945;28;20040;-69
2023/01/15 09:32:24;;;;;;;9.93;2.00;;;6.60;99.90;;;;;;5099867;28;20044;-72
2023/01/15 09:34:50;;;;;;;13.50;1.83;;;6.60;99.90;;;;;;5099859;28;20040;-69
2023/01/15 09:37:16;;;;;;;10.18;2.00;;;6.60;99.90;;;;;;5099824;28;20424;-69
2023/01/15 09:39:42;;;;;;;14.40;2.15;;;6.60;99.90;;;;;;5099376;28;20047;-70
2023/01/15 09:42:26;;;;;;;9.93;1.90;;;6.70;99.90;;;;;;5099715;28;20048;-69
2023/01/15 09:45:19;;;;;;;10.40;1.90;;;6.70;99.90;;;;;;5098337;28;20043;-69
2023/01/15 09:48:08;;;;;;;15.88;2.10;;;6.80;99.90;;;;;;5095896;28;20033;-69
2023/01/15 09:51:00;;;;;;;12.77;1.85;;;7.10;99.90;;;;;;5098173;28;20075;-69
2023/01/15 09:53:39;;;;;;;9.00;1.95;;;7.20;99.90;;;;;;5093261;28;20489;-69
2023/01/15 09:56:08;;;;;;;18.05;2.90;;;7.20;99.90;;;;;;5096125;28;20044;-69
2023/01/15 09:58:39;;;;;;;7.35;2.30;;;7.10;99.90;;;;;;5098404;28;20056;-69
2023/01/15 10:01:06;;;;;;;10.95;2.25;;;7.00;99.90;;;;;;5096273;28;20036;-69
2023/01/15 10:03:47;;;;;;;15.63;2.70;;;6.90;99.90;;;;;;5098964;28;20044;-68
2023/01/15 10:06:26;;;;;;;10.65;2.20;;;6.90;99.90;;;;;;5099177;28;20051;-68
2023/01/15 10:09:03;;;;;;;16.30;2.72;;;7.00;99.90;;;;;;5097925;28;20094;-68
2023/01/15 10:15:00;;;;;;;9.10;2.35;;;7.40;99.90;;;;;;5099088;28;20114;-69
2023/01/15 10:17:46;;;;;;;9.63;2.00;;;7.40;99.90;;;;;;5099046;28;20059;-69
2023/01/15 10:20:28;;;;;;;17.52;2.30;;;7.40;99.90;;;;;;5099005;28;20383;-69
2023/01/15 10:23:24;;;;;;;19.02;2.97;;;7.50;99.90;;;;;;5097665;28;20071;-69
2023/01/15 10:26:05;;;;;;;12.63;2.42;;;7.40;99.90;;;;;;5098583;28;20032;-69
2023/01/15 10:28:46;;;;;;;15.10;2.42;;;7.40;99.90;;;;;;5098559;28;20071;-69
2023/01/15 10:31:19;;;;;;;11.68;2.20;;;7.50;99.90;;;;;;5098814;28;20032;-69
2023/01/15 10:34:22;;;;;;;12.90;2.33;;;7.50;99.90;;;;;;5098797;28;20106;-69
2023/01/15 10:37:00;;;;;;;20.70;2.72;;;7.50;99.90;;;;;;5098654;28;20032;-69
2023/01/15 10:39:37;;;;;;;13.13;1.85;;;7.60;99.90;;;;;;5098330;28;20078;-69
2023/01/15 10:42:42;;;;;;;8.77;1.50;;;7.60;99.90;;;;;;5098583;28;20085;-68
2023/01/15 10:45:14;;;;;;;10.98;1.73;;;7.80;99.90;;;;;;5098464;28;20047;-68
2023/01/15 10:47:42;;;;;;;13.60;1.90;;;7.70;99.90;;;;;;5098112;28;20464;-69
2023/01/15 10:50:20;;;;;;;10.40;1.40;;;7.70;99.90;;;;;;5098381;28;20119;-69
2023/01/15 10:52:50;;;;;;;11.15;2.45;;;7.70;99.90;;;;;;5098340;28;20036;-69
2023/01/15 10:55:24;;;;;;;12.38;2.08;;;7.70;99.90;;;;;;5098344;28;20089;-71
2023/01/15 10:58:05;;;;;;;14.30;2.00;;;7.60;99.90;;;;;;5097784;28;20062;-68
2023/01/15 11:00:31;;;;;;;13.50;2.00;;;7.60;99.90;;;;;;5097229;28;20115;-68
2023/01/15 11:03:13;;;;;;;14.90;2.78;;;7.70;99.90;;;;;;5098176;28;20048;-67
2023/01/15 11:05:39;;;;;;;9.88;1.85;;;7.80;99.90;;;;;;5098054;28;20040;-67
2023/01/15 11:08:21;;;;;;;10.27;1.73;;;7.80;99.90;;;;;;5098044;28;20086;-67
2023/01/15 11:10:47;;;;;;;12.65;2.35;;;7.80;99.90;;;;;;5097352;28;20418;-66
2023/01/15 11:21:55;;;;;;;11.50;1.83;;;8.10;99.90;;;;;;5135840;27;21116;-68
2023/01/15 11:24:21;;;;;;;18.00;2.58;;;8.20;99.90;;;;;;5134976;27;20046;-67
2023/01/15 11:26:50;;;;;;;19.55;2.40;;;8.10;99.90;;;;;;5135247;27;20036;-67
2023/01/15 11:29:29;;;;;;;13.85;2.08;;;8.10;99.90;;;;;;5134935;27;20043;-68
2023/01/15 11:31:55;;;;;;;15.95;2.00;;;8.10;99.90;;;;;;5135201;27;20047;-67
2023/01/15 11:34:21;;;;;;;16.40;2.17;;;8.10;99.90;;;;;;5133735;27;20423;-68
2023/01/15 11:36:59;;;;;;;18.17;3.22;;;8.30;99.90;;;;;;5133302;27;20035;-68
2023/01/15 11:39:27;;;;;;;29.80;2.28;;;8.30;99.90;;;;;;5132297;28;20114;-67
2023/01/15 11:50:48;;;;;;;19.70;2.25;;;7.90;99.90;;;;;;5134841;27;20050;-68
2023/01/15 11:53:24;;;;;;;11.05;1.88;;;7.90;99.90;;;;;;5134734;27;20039;-69
2023/01/15 11:56:03;;;;;;;16.83;2.13;;;7.90;99.90;;;;;;5134602;27;20035;-69
2023/01/15 11:58:46;;;;;;;10.02;1.80;;;7.80;99.90;;;;;;5127239;27;20038;-69
2023/01/15 12:01:19;;;;;;;16.58;3.10;;;7.80;99.90;;;;;;5119448;28;20043;-70
2023/01/15 12:03:45;;;;;;;11.82;2.50;;;7.80;99.90;;;;;;5133673;27;20039;-68
2023/01/15 12:06:13;;;;;;;15.73;2.20;;;8.00;99.90;;;;;;5126573;27;20047;-72
2023/01/15 12:08:50;;;;;;;18.70;3.03;;;7.90;99.90;;;;;;5113944;28;20047;-68
2023/01/15 12:11:42;;;;;;;16.73;2.60;;;7.90;99.90;;;;;;5116256;28;20376;-67
2023/01/15 12:14:29;;;;;;;20.77;3.10;;;7.80;99.90;;;;;;5134299;27;20054;-67
2023/01/15 12:16:57;;;;;;;12.52;2.78;;;7.90;99.90;;;;;;5134270;27;20039;-67
2023/01/15 12:19:53;;;;;;;21.15;3.55;;;7.80;99.90;;;;;;5134164;27;20039;-68
2023/01/15 12:22:32;;;;;;;13.57;3.03;;;7.70;99.90;;;;;;5126032;28;20048;-68
2023/01/15 12:25:03;;;;;;;20.48;4.07;;;7.60;99.90;;;;;;5134077;27;20148;-68
2023/01/15 12:28:27;;;;;;;15.05;3.05;;;7.50;99.90;;;;;;5133970;27;20042;-68
2023/01/15 12:31:07;;;;;;;15.23;3.30;;;7.40;99.90;;;;;;5111306;28;20044;-68
2023/01/15 12:33:53;;;;;;;15.82;3.22;;;7.30;99.90;;;;;;5097247;28;20046;-68
2023/01/15 12:36:28;;;;;;;20.15;4.15;;;7.20;99.90;;;;;;5114826;28;20051;-68
2023/01/15 12:39:23;;;;;;;11.57;4.13;;;7.30;99.90;;;;;;5113165;28;20133;-70
2023/01/15 12:45:02;;;;;;;17.65;4.38;;;7.20;99.90;;;;;;5099663;28;20413;-70
2023/01/15 12:47:56;;;;;;;9.90;4.97;;;7.10;99.90;;;;;;5099573;28;20383;-70
2023/01/15 12:50:43;;;;;;;23.27;7.40;;;6.80;99.90;;;;;;5099453;28;20123;-70
2023/01/15 12:53:09;;;;;;;17.63;8.38;;;6.50;99.90;;;;;;5114714;28;20035;-70
2023/01/15 12:55:41;;;;;;;13.82;8.13;;;6.30;99.90;;;;;;5119488;28;20073;-70
2023/01/15 12:58:20;;;;;;;15.07;10.32;;;6.00;99.90;;;;;;5119780;28;20356;-71
2023/01/15 13:00:48;;;;;;;15.82;12.18;;;5.80;99.90;;;;;;5098641;28;20062;-70
2023/01/15 13:03:16;;;;;;;22.95;13.85;;;5.70;99.90;;;;;;5109264;28;20118;-71
2023/01/15 13:05:59;;;;;;;15.60;13.52;;;5.70;99.90;;;;;;5119637;28;20047;-70
2023/01/15 13:08:44;;;;;;;26.02;15.90;;;5.70;99.90;;;;;;5119622;28;20032;-70
2023/01/15 13:11:11;;;;;;;18.63;13.93;;;5.70;99.90;;;;;;5119173;28;20096;-70
2023/01/15 13:13:40;;;;;;;16.25;14.07;;;5.60;99.90;;;;;;5101072;28;20043;-70
2023/01/15 13:16:49;;;;;;;14.52;12.85;;;5.60;99.90;;;;;;5119407;28;20040;-70
2023/01/15 13:19:47;;;;;;;15.65;12.30;;;5.50;99.90;;;;;;5076550;28;20048;-70
2023/01/15 13:22:18;;;;;;;12.10;10.90;;;5.50;99.90;;;;;;5098521;28;20054;-70
2023/01/15 13:25:17;;;;;;;12.32;11.20;;;5.60;99.90;;;;;;5109975;28;20027;-70
2023/01/15 13:27:49;;;;;;;11.27;10.32;;;5.60;99.90;;;;;;5103437;28;20040;-69
2023/01/15 13:30:36;;;;;;;11.15;10.30;;;5.60;99.90;;;;;;5119129;28;20035;-69
2023/01/15 13:33:23;;;;;;;15.75;11.80;;;5.60;99.90;;;;;;5115638;28;20044;-69
2023/01/15 13:36:00;;;;;;;11.20;10.32;;;5.60;99.90;;;;;;5117833;28;20043;-69
2023/01/15 13:38:29;;;;;;;12.00;11.00;;;5.60;99.90;;;;;;5113303;28;20372;-69
2023/01/15 13:40:56;;;;;;;10.75;9.90;;;5.60;99.90;;;;;;5097767;28;20041;-69
2023/01/15 13:43:39;;;;;;;9.10;8.15;;;5.70;99.90;;;;;;5100237;28;20452;-69
2023/01/15 13:46:07;;;;;;;11.60;9.20;;;5.70;99.90;;;;;;5117637;28;20359;-70
2023/01/15 13:48:41;;;;;;;14.35;10.52;;;5.70;99.90;;;;;;5117811;28;20035;-69
2023/01/15 13:51:21;;;;;;;12.70;9.18;;;5.80;99.90;;;;;;5117635;28;20421;-69
2023/01/15 13:53:48;;;;;;;14.63;11.40;;;5.80;99.90;;;;;;5115304;28;20425;-69
2023/01/15 13:56:29;;;;;;;13.50;10.63;;;5.90;99.90;;;;;;5118588;28;20039;-69
2023/01/15 13:59:00;;;;;;;12.68;11.40;;;5.90;99.90;;;;;;5117499;28;20110;-69
2023/01/15 14:01:29;;;;;;;14.90;13.40;;;5.90;99.90;;;;;;5118470;28;20044;-69
2023/01/15 14:04:03;;;;;;;12.55;11.35;;;6.00;99.90;;;;;;5098364;28;20433;-68
2023/01/15 14:06:55;;;;;;;16.35;10.98;;;6.00;99.90;;;;;;5097856;28;20039;-68